Adobe Reservoir




Date Battery Voltage (V) Panel Temperature (degF) Reservoir Height (ft) Reservoir Acre Feet (AF) Blue Cut-Clipper-Western Meter (cfs) Hunter Plant Meter (cfs) Air Temperature (degF) Blue Cut-Clipper-Western Meter GPM (gpm) Hunter Plant Meter GPM (gpm) Reservoir Elevation (ft) Battery Voltage 24 (V) Hunter Plant Meter Total Gallons (gal) Pond Battery Voltage (V) Pond 24V Battery Voltage (V) Pipe PSI (PSI) K Gallons Total (gal) Signal Strength (db) Call Fails (ea) Total Fails (ea) Tries (ea) Water Level Sensor Upper Mammoth Meter (gpm) Upper Mammoth Meter (cfs)
09/01/2018 12.3 26.4 96.0 1,022 23.0 22.0 62 10,314 9,853 5,996.0 29.5 12.2 25.2 24.8 9,681,505.00 0.00 2,677.85 5.97
09/02/2018 12.3 26.2 96.2 1,039 19.0 21.9 62 8,547 9,830 5,996.2 29.5 12.2 25.1 25.3 9,695,792.00 0.00 1,788.61 3.99
09/03/2018 12.3 26.6 96.4 1,053 22.9 24.0 62 10,262 10,749 5,996.4 29.5 12.2 25.1 25.0 9,711,412.00 0.00 1,786.32 3.98
09/04/2018 12.3 26.4 96.2 1,037 29.3 26.1 62 13,165 11,724 5,996.2 29.5 12.2 24.7 24.4 9,728,300.00 0.00 2,408.54 5.37
09/05/2018 12.3 25.7 95.8 1,010 36.1 25.5 62 16,208 11,443 5,995.8 29.5 12.2 25.0 23.7 9,744,757.00 0.00 2,917.08 6.50
09/06/2018 12.3 25.7 95.4 974 34.6 25.0 63 15,534 11,234 5,995.4 29.5 12.2 25.1 23.7 9,760,886.00 0.00 2,749.86 6.13
09/07/2018 12.3 26.2 95.0 945 32.7 26.4 63 14,674 11,831 5,995.0 29.6 12.2 25.0 23.5 9,777,955.00 0.00 2,939.65 6.55
09/08/2018 12.3 26.2 94.9 937 29.4 25.6 63 13,199 11,469 5,994.9 29.7 12.2 25.2 23.8 9,794,448.00 0.00 2,378.13 5.30
09/09/2018 12.3 27.5 95.0 947 27.3 24.8 63 12,262 11,147 5,995.0 29.5 12.2 25.2 24.1 9,810,446.00 0.00 1,570.90 3.50
09/10/2018 12.3 27.4 95.3 967 27.3 24.6 63 12,237 11,046 5,995.3 29.6 12.2 24.9 24.2 9,826,278.00 0.00 2,204.44 4.91
09/11/2018 12.3 27.6 95.5 983 30.7 24.1 63 13,783 10,808 5,995.5 29.5 12.2 25.2 24.1 9,841,754.00 62.33 2,155.14 4.80
09/12/2018 12.3 27.8 95.8 1,004 25.9 24.1 63 11,620 10,833 5,995.8 29.6 12.2 25.2 24.4 9,857,278.00 0.00 2,506.46 5.58
09/13/2018 12.3 27.2 96.0 1,025 26.2 22.0 63 11,774 9,863 5,996.0 29.6 12.2 25.2 24.6 9,871,324.00 0.00 2,728.26 6.08
09/14/2018 12.3 26.8 96.3 1,044 18.0 23.8 62 8,080 10,670 5,996.3 29.6 12.2 25.3 25.2 9,886,592.00 0.00 2,273.13 5.07
09/15/2018 12.3 26.8 96.6 1,073 17.2 23.5 62 7,709 10,527 5,996.6 29.6 12.2 25.0 25.4 9,901,642.00 0.00 1,997.50 4.45
09/16/2018 12.3 27.0 96.8 1,082 21.3 23.2 62 9,541 10,411 5,996.8 29.6 12.2 25.0 25.4 9,916,495.00 0.00 1,173.13 2.61
09/17/2018 12.3 26.8 96.5 1,060 23.1 27.1 62 10,362 12,177 5,996.5 29.5 12.2 24.8 25.0 9,934,104.00 0.00 1,579.86 3.52
09/18/2018 12.3 26.5 96.0 1,025 20.7 22.1 62 9,300 9,900 5,996.0 29.5 12.2 25.2 25.1 9,948,253.00 0.00 1,688.33 3.76
09/19/2018 12.3 27.2 95.7 997 22.2 19.7 63 9,946 8,839 5,995.7 29.5 12.2 25.2 24.9 9,961,188.00 0.00 2,187.22 4.87
09/20/2018 12.3 25.9 95.5 986 22.8 18.9 62 10,245 8,466 5,995.5 30.0 12.2 25.3 24.8 9,973,399.00 0.00 2,663.68 5.94
09/21/2018 12.3 24.7 95.8 1,005 18.3 16.0 62 8,200 7,198 5,995.8 29.6 12.2 25.3 25.2 9,983,479.00 0.00 3,162.15 7.05
09/22/2018 12.3 25.4 96.3 1,047 15.6 15.9 61 7,006 7,116 5,996.3 29.5 12.2 25.0 25.5 9,993,559.00 0.00 3,863.33 8.61
09/23/2018 12.3 25.1 96.9 1,095 14.0 15.9 61 6,295 7,131 5,996.9 29.8 12.2 25.1 25.9 10,003,639.00 0.00 2,959.72 6.59
09/24/2018 12.3 25.0 97.6 1,150 15.8 15.9 61 7,079 7,137 5,997.6 29.6 12.2 25.2 26.2 10,013,718.00 0.00 2,277.22 5.07
09/25/2018 12.3 24.4 97.9 1,177 20.0 17.0 61 8,979 7,646 5,997.9 29.5 12.2 25.3 26.0 10,024,592.00 0.00 2,721.32 6.06
09/26/2018 12.3 24.2 97.6 1,152 22.0 17.9 60 9,876 8,015 5,997.6 29.5 12.2 25.3 25.7 10,035,889.00 0.00 2,541.88 5.66
09/27/2018 12.3 24.4 97.3 1,125 18.3 20.1 60 8,233 9,026 5,997.3 29.5 12.2 25.3 25.6 10,048,849.00 0.00 2,700.42 6.02
09/28/2018 12.3 25.0 97.1 1,112 18.5 20.1 60 8,295 9,037 5,997.1 29.5 12.2 25.2 25.6 10,061,809.00 0.00 2,489.44 5.55
09/29/2018 12.3 26.2 97.0 1,099 18.4 20.2 60 8,277 9,086 5,997.0 29.5 12.2 25.2 25.6 10,074,769.00 0.00 1,891.74 4.22
09/30/2018 12.3 25.8 97.0 1,097 17.7 20.3 61 7,964 9,124 5,997.0 29.5 12.2 25.1 25.7 10,087,729.00 0.00 940.69 2.10
Average 22.9 21.8 5.19
Maximum 36.1 27.1 8.61
Minimum 14.0 15.9 2.10
Total Volume (AF) 1,364.9 1,296.3 308.97